RYR10XW LERS-EHEH
Flight info
| Callsign | RYR10XW |
|---|---|
| Flight time | 1h 55m |
| Altitude | 30000 |
| Route | ARBEK T113 RUTIP DCT OKABI/N0437F360 DCT TOU DCT ADABI DCT BOKNO UN858 VANAD UN874 ARSAF DCT EGOZE DCT CMB DCT VEKIN DCT ADUTO N873 FERDI Y18 DENUT |
| Aircraft | B38M/M-SADE3FGILRWY/SB1 |
Departure
| Time | 2026-04-24 10:18 |
|---|---|
| Airport | Reus Airport (LERS) |
Arrival
| Time | 2026-04-24 12:13 |
|---|---|
| Airport | Eindhoven Airport (EHEH) |
| Time | Latitude | Longitude | Altitude | Speed | Heading |
|---|---|---|---|---|---|
| 2026-04-24 09:45 | 41.14763 | 1.15921 | 242 ft | 0 kts | 341° |
| 2026-04-24 10:07 | 41.14754 | 1.15925 | 242 ft | 0 kts | 342° |
| 2026-04-24 10:09 | 41.14731 | 1.15934 | 242 ft | 4 kts | 345° |
| 2026-04-24 10:10 | 41.14705 | 1.15942 | 242 ft | 4 kts | 353° |
| 2026-04-24 10:10 | 41.14681 | 1.15942 | 242 ft | 1 kts | 7° |
| 2026-04-24 10:13 | 41.14685 | 1.15945 | 242 ft | 1 kts | 24° |
| 2026-04-24 10:13 | 41.14692 | 1.15957 | 242 ft | 3 kts | 63° |
| 2026-04-24 10:14 | 41.14707 | 1.16001 | 242 ft | 9 kts | 69° |
| 2026-04-24 10:14 | 41.14741 | 1.16119 | 242 ft | 19 kts | 69° |
| 2026-04-24 10:14 | 41.14796 | 1.16308 | 243 ft | 24 kts | 69° |
| 2026-04-24 10:14 | 41.14856 | 1.16519 | 243 ft | 25 kts | 69° |
| 2026-04-24 10:15 | 41.14921 | 1.16743 | 243 ft | 27 kts | 69° |
| 2026-04-24 10:15 | 41.14988 | 1.16970 | 244 ft | 27 kts | 69° |
| 2026-04-24 10:15 | 41.15058 | 1.17203 | 244 ft | 28 kts | 68° |
| 2026-04-24 10:15 | 41.15130 | 1.17449 | 245 ft | 29 kts | 69° |
| 2026-04-24 10:16 | 41.15199 | 1.17687 | 245 ft | 25 kts | 69° |
| 2026-04-24 10:16 | 41.15255 | 1.17884 | 246 ft | 24 kts | 69° |
| 2026-04-24 10:16 | 41.15316 | 1.18093 | 246 ft | 25 kts | 68° |
| 2026-04-24 10:16 | 41.15333 | 1.18215 | 246 ft | 11 kts | 114° |
| 2026-04-24 10:17 | 41.15262 | 1.18270 | 247 ft | 13 kts | 160° |
| 2026-04-24 10:17 | 41.15189 | 1.18242 | 248 ft | 12 kts | 246° |
| 2026-04-24 10:17 | 41.15145 | 1.18095 | 247 ft | 38 kts | 249° |
| 2026-04-24 10:17 | 41.14939 | 1.17398 | 243 ft | 122 kts | 249° |
| 2026-04-24 10:18 | 41.14523 | 1.16085 | 358 ft | 178 kts | 246° |
| 2026-04-24 10:18 | 41.14107 | 1.14482 | 1131 ft | 190 kts | 248° |
| 2026-04-24 10:18 | 41.13522 | 1.12861 | 2081 ft | 200 kts | 239° |
| 2026-04-24 10:18 | 41.12749 | 1.11115 | 2524 ft | 238 kts | 237° |
| 2026-04-24 10:19 | 41.11904 | 1.09188 | 3448 ft | 252 kts | 238° |
| 2026-04-24 10:19 | 41.11009 | 1.07122 | 4451 ft | 264 kts | 238° |
| 2026-04-24 10:19 | 41.10088 | 1.04966 | 5531 ft | 267 kts | 239° |
| 2026-04-24 10:19 | 41.09208 | 1.02846 | 6880 ft | 265 kts | 240° |
| 2026-04-24 10:20 | 41.08279 | 1.00651 | 7676 ft | 278 kts | 240° |
| 2026-04-24 10:20 | 41.07330 | 0.98420 | 8775 ft | 278 kts | 241° |
| 2026-04-24 10:20 | 41.06379 | 0.96173 | 9811 ft | 282 kts | 241° |
| 2026-04-24 10:20 | 41.05412 | 0.93884 | 10649 ft | 290 kts | 242° |
| 2026-04-24 10:21 | 41.04395 | 0.91469 | 11144 ft | 310 kts | 242° |
| 2026-04-24 10:21 | 41.03562 | 0.88757 | 11530 ft | 329 kts | 262° |
| 2026-04-24 10:21 | 41.03738 | 0.85705 | 12051 ft | 342 kts | 288° |
| 2026-04-24 10:21 | 41.04981 | 0.82986 | 12636 ft | 354 kts | 314° |
| 2026-04-24 10:22 | 41.07065 | 0.81255 | 13468 ft | 360 kts | 339° |
| 2026-04-24 10:22 | 41.09571 | 0.80802 | 14116 ft | 369 kts | 0° |
| 2026-04-24 10:22 | 41.12148 | 0.80869 | 14747 ft | 372 kts | 357° |
| 2026-04-24 10:22 | 41.14744 | 0.80814 | 15430 ft | 375 kts | 359° |
| 2026-04-24 10:23 | 41.17355 | 0.81005 | 16167 ft | 378 kts | 4° |
| 2026-04-24 10:23 | 41.19966 | 0.81556 | 16847 ft | 382 kts | 10° |
| 2026-04-24 10:23 | 41.22549 | 0.82456 | 17529 ft | 385 kts | 17° |
| 2026-04-24 10:23 | 41.25068 | 0.83715 | 18186 ft | 388 kts | 23° |
| 2026-04-24 10:24 | 41.27490 | 0.85313 | 18752 ft | 391 kts | 29° |
| 2026-04-24 10:24 | 41.29804 | 0.87251 | 19236 ft | 395 kts | 35° |
| 2026-04-24 10:24 | 41.31973 | 0.89514 | 19714 ft | 398 kts | 41° |
| 2026-04-24 10:24 | 41.33948 | 0.92053 | 20174 ft | 402 kts | 47° |
| 2026-04-24 10:25 | 41.35753 | 0.94917 | 20617 ft | 406 kts | 53° |
| 2026-04-24 10:25 | 41.37331 | 0.98044 | 21086 ft | 409 kts | 59° |
| 2026-04-24 10:25 | 41.38676 | 1.01449 | 21538 ft | 411 kts | 65° |
| 2026-04-24 10:25 | 41.39713 | 1.04949 | 22009 ft | 414 kts | 72° |
| 2026-04-24 10:26 | 41.40480 | 1.08656 | 22450 ft | 416 kts | 78° |
| 2026-04-24 10:26 | 41.41346 | 1.12329 | 22874 ft | 419 kts | 64° |
| 2026-04-24 10:26 | 41.43030 | 1.15487 | 23288 ft | 421 kts | 43° |
| 2026-04-24 10:26 | 41.45394 | 1.17719 | 23805 ft | 416 kts | 25° |
| 2026-04-24 10:27 | 41.48152 | 1.18881 | 24054 ft | 418 kts | 8° |
| 2026-04-24 10:27 | 41.51055 | 1.18952 | 24282 ft | 420 kts | 353° |
| 2026-04-24 10:27 | 41.53908 | 1.18050 | 24522 ft | 422 kts | 340° |
| 2026-04-24 10:27 | 41.56711 | 1.16887 | 24781 ft | 423 kts | 348° |
| 2026-04-24 10:28 | 41.59609 | 1.16258 | 25046 ft | 424 kts | 354° |
| 2026-04-24 10:28 | 41.62574 | 1.16317 | 25207 ft | 428 kts | 7° |
| 2026-04-24 10:28 | 41.65511 | 1.16937 | 25503 ft | 428 kts | 9° |
| 2026-04-24 10:28 | 41.68446 | 1.17711 | 25650 ft | 432 kts | 11° |
| 2026-04-24 10:29 | 41.71379 | 1.18579 | 25875 ft | 432 kts | 12° |
| 2026-04-24 10:29 | 41.74315 | 1.19489 | 26060 ft | 435 kts | 12° |
| 2026-04-24 10:29 | 41.77263 | 1.20429 | 26231 ft | 436 kts | 12° |
| 2026-04-24 10:29 | 41.80211 | 1.21384 | 26466 ft | 437 kts | 13° |
| 2026-04-24 10:30 | 41.83170 | 1.22352 | 26625 ft | 439 kts | 12° |
| 2026-04-24 10:30 | 41.86060 | 1.23297 | 26816 ft | 439 kts | 13° |
| 2026-04-24 10:30 | 41.89040 | 1.24274 | 26950 ft | 442 kts | 13° |
| 2026-04-24 10:30 | 41.92023 | 1.25252 | 27128 ft | 442 kts | 13° |
| 2026-04-24 10:31 | 41.95021 | 1.26237 | 27262 ft | 444 kts | 13° |
| 2026-04-24 10:31 | 41.98026 | 1.27224 | 27417 ft | 445 kts | 13° |
| 2026-04-24 10:31 | 42.01035 | 1.28214 | 27557 ft | 446 kts | 13° |
| 2026-04-24 10:31 | 42.04052 | 1.29207 | 27693 ft | 447 kts | 13° |
| 2026-04-24 10:32 | 42.07075 | 1.30204 | 27823 ft | 448 kts | 13° |
| 2026-04-24 10:32 | 42.10110 | 1.31205 | 27943 ft | 449 kts | 13° |
| 2026-04-24 10:32 | 42.13147 | 1.32207 | 28078 ft | 450 kts | 13° |
| 2026-04-24 10:32 | 42.16189 | 1.33215 | 28180 ft | 451 kts | 13° |
| 2026-04-24 10:33 | 42.19248 | 1.34229 | 28305 ft | 452 kts | 13° |
| 2026-04-24 10:33 | 42.22302 | 1.35242 | 28450 ft | 452 kts | 13° |
| 2026-04-24 10:33 | 42.25358 | 1.36256 | 28578 ft | 453 kts | 13° |
| 2026-04-24 10:34 | 42.31487 | 1.38294 | 28771 ft | 454 kts | 13° |
| 2026-04-24 10:34 | 42.37593 | 1.40328 | 28939 ft | 456 kts | 13° |
| 2026-04-24 10:35 | 42.43759 | 1.42387 | 29145 ft | 456 kts | 13° |
| 2026-04-24 10:35 | 42.49928 | 1.44449 | 29276 ft | 458 kts | 13° |
| 2026-04-24 10:36 | 42.56118 | 1.46520 | 29389 ft | 459 kts | 13° |
| 2026-04-24 10:36 | 42.62382 | 1.48039 | 29528 ft | 457 kts | 356° |
| 2026-04-24 10:36 | 42.65526 | 1.47625 | 29651 ft | 455 kts | 353° |
| 2026-04-24 10:37 | 42.68688 | 1.47178 | 29568 ft | 458 kts | 353° |
| 2026-04-24 10:37 | 42.71854 | 1.46701 | 29692 ft | 457 kts | 353° |
| 2026-04-24 10:37 | 42.75016 | 1.46204 | 29736 ft | 458 kts | 353° |
| 2026-04-24 10:38 | 42.81349 | 1.45184 | 29824 ft | 458 kts | 353° |
| 2026-04-24 10:38 | 42.87691 | 1.44160 | 29878 ft | 460 kts | 352° |
| 2026-04-24 10:38 | 42.90868 | 1.43645 | 29986 ft | 459 kts | 353° |
| 2026-04-24 10:39 | 42.94042 | 1.43132 | 30097 ft | 462 kts | 353° |
| 2026-04-24 10:39 | 43.00426 | 1.42095 | 30088 ft | 461 kts | 353° |
| 2026-04-24 10:40 | 43.06802 | 1.41059 | 30088 ft | 461 kts | 352° |
| 2026-04-24 10:40 | 43.13178 | 1.40019 | 30083 ft | 461 kts | 353° |
| 2026-04-24 10:41 | 43.19552 | 1.38978 | 30085 ft | 461 kts | 353° |
| 2026-04-24 10:41 | 43.25913 | 1.37937 | 30090 ft | 459 kts | 352° |
| 2026-04-24 10:42 | 43.31191 | 1.37073 | 30086 ft | 460 kts | 352° |
| 2026-04-24 10:42 | 43.37535 | 1.36030 | 30085 ft | 459 kts | 352° |
| 2026-04-24 10:43 | 43.43890 | 1.34984 | 30096 ft | 458 kts | 351° |
| 2026-04-24 10:43 | 43.50207 | 1.33942 | 30089 ft | 457 kts | 352° |
| 2026-04-24 10:44 | 43.56505 | 1.32901 | 30086 ft | 457 kts | 352° |
| 2026-04-24 10:44 | 43.62813 | 1.31855 | 30104 ft | 456 kts | 352° |
| 2026-04-24 10:45 | 43.69097 | 1.30653 | 30106 ft | 454 kts | 347° |
| 2026-04-24 10:45 | 43.75316 | 1.28986 | 30099 ft | 456 kts | 348° |
| 2026-04-24 10:46 | 43.81540 | 1.27378 | 30096 ft | 455 kts | 348° |
| 2026-04-24 10:46 | 43.87782 | 1.25768 | 30094 ft | 457 kts | 348° |
| 2026-04-24 10:47 | 43.94039 | 1.24150 | 30093 ft | 457 kts | 348° |
| 2026-04-24 10:47 | 44.00300 | 1.22528 | 30094 ft | 457 kts | 348° |
| 2026-04-24 10:48 | 44.06506 | 1.20917 | 30092 ft | 457 kts | 348° |
| 2026-04-24 10:48 | 44.12756 | 1.19290 | 30090 ft | 457 kts | 348° |
| 2026-04-24 10:49 | 44.19002 | 1.17662 | 30096 ft | 457 kts | 348° |
| 2026-04-24 10:49 | 44.25249 | 1.16029 | 30098 ft | 456 kts | 348° |
| 2026-04-24 10:50 | 44.31483 | 1.14397 | 30089 ft | 456 kts | 348° |
| 2026-04-24 10:50 | 44.37762 | 1.12749 | 30093 ft | 461 kts | 348° |
| 2026-04-24 10:51 | 44.44053 | 1.11094 | 30104 ft | 459 kts | 347° |
| 2026-04-24 10:51 | 44.50329 | 1.09440 | 30100 ft | 458 kts | 347° |
| 2026-04-24 10:52 | 44.56591 | 1.07785 | 30101 ft | 458 kts | 347° |
| 2026-04-24 10:52 | 44.62865 | 1.06124 | 30103 ft | 458 kts | 347° |
| 2026-04-24 10:53 | 44.69105 | 1.04469 | 30095 ft | 456 kts | 347° |
| 2026-04-24 10:53 | 44.75346 | 1.02809 | 30099 ft | 457 kts | 347° |
| 2026-04-24 10:54 | 44.81589 | 1.01145 | 30093 ft | 456 kts | 347° |
| 2026-04-24 10:54 | 44.87827 | 0.99479 | 30095 ft | 457 kts | 347° |
| 2026-04-24 10:55 | 44.94072 | 0.97807 | 30092 ft | 456 kts | 347° |
| 2026-04-24 10:55 | 45.00314 | 0.96132 | 30104 ft | 456 kts | 348° |
| 2026-04-24 10:56 | 45.06538 | 0.94459 | 30098 ft | 455 kts | 347° |
| 2026-04-24 10:56 | 45.12716 | 0.92794 | 30101 ft | 455 kts | 347° |
| 2026-04-24 10:57 | 45.18933 | 0.91115 | 30118 ft | 455 kts | 347° |
| 2026-04-24 10:57 | 45.25120 | 0.89440 | 30104 ft | 452 kts | 347° |
| 2026-04-24 10:58 | 45.31302 | 0.87763 | 30103 ft | 452 kts | 347° |
| 2026-04-24 10:58 | 45.37475 | 0.86085 | 30098 ft | 452 kts | 347° |
| 2026-04-24 10:59 | 45.43640 | 0.84405 | 30096 ft | 451 kts | 347° |
| 2026-04-24 10:59 | 45.49800 | 0.82723 | 30099 ft | 451 kts | 347° |
| 2026-04-24 11:00 | 45.55957 | 0.81038 | 30097 ft | 451 kts | 347° |
| 2026-04-24 11:00 | 45.62097 | 0.79353 | 30115 ft | 448 kts | 347° |
| 2026-04-24 11:01 | 45.68219 | 0.77671 | 30091 ft | 449 kts | 347° |
| 2026-04-24 11:01 | 45.74385 | 0.75972 | 30106 ft | 452 kts | 347° |
| 2026-04-24 11:02 | 45.80559 | 0.74267 | 30105 ft | 451 kts | 347° |
| 2026-04-24 11:02 | 45.86707 | 0.72565 | 30107 ft | 450 kts | 347° |
| 2026-04-24 11:03 | 45.92862 | 0.70858 | 30106 ft | 450 kts | 347° |
| 2026-04-24 11:03 | 45.99007 | 0.69150 | 30117 ft | 449 kts | 347° |
| 2026-04-24 11:04 | 46.05124 | 0.67445 | 30118 ft | 447 kts | 347° |
| 2026-04-24 11:04 | 46.11235 | 0.65738 | 30116 ft | 448 kts | 347° |
| 2026-04-24 11:05 | 46.17359 | 0.64023 | 30121 ft | 447 kts | 348° |
| 2026-04-24 11:05 | 46.23461 | 0.62311 | 30115 ft | 446 kts | 348° |
| 2026-04-24 11:06 | 46.29561 | 0.60597 | 30113 ft | 447 kts | 348° |
| 2026-04-24 11:06 | 46.35657 | 0.58879 | 30127 ft | 446 kts | 348° |
| 2026-04-24 11:07 | 46.44764 | 0.56307 | 30130 ft | 446 kts | 348° |
| 2026-04-24 11:07 | 46.50859 | 0.54580 | 30128 ft | 446 kts | 348° |
| 2026-04-24 11:08 | 46.57009 | 0.53638 | 30133 ft | 448 kts | 6° |
| 2026-04-24 11:08 | 46.63131 | 0.55441 | 30125 ft | 449 kts | 11° |
| 2026-04-24 11:09 | 46.69243 | 0.57406 | 30136 ft | 450 kts | 11° |
| 2026-04-24 11:09 | 46.75347 | 0.59416 | 30130 ft | 450 kts | 11° |
| 2026-04-24 11:10 | 46.81449 | 0.61434 | 30127 ft | 450 kts | 11° |
| 2026-04-24 11:10 | 46.87551 | 0.63458 | 30136 ft | 450 kts | 11° |
| 2026-04-24 11:11 | 46.93661 | 0.65488 | 30130 ft | 449 kts | 11° |
| 2026-04-24 11:11 | 46.99750 | 0.67516 | 30147 ft | 449 kts | 11° |
| 2026-04-24 11:12 | 47.05871 | 0.69297 | 30144 ft | 447 kts | 3° |
| 2026-04-24 11:12 | 47.12083 | 0.69930 | 30143 ft | 447 kts | 3° |
| 2026-04-24 11:13 | 47.18295 | 0.70581 | 30158 ft | 448 kts | 3° |
| 2026-04-24 11:13 | 47.24516 | 0.71231 | 30152 ft | 448 kts | 3° |
| 2026-04-24 11:14 | 47.30696 | 0.71878 | 30152 ft | 448 kts | 3° |
| 2026-04-24 11:14 | 47.36918 | 0.72530 | 30153 ft | 448 kts | 3° |
| 2026-04-24 11:15 | 47.43140 | 0.73185 | 30166 ft | 449 kts | 4° |
| 2026-04-24 11:15 | 47.49362 | 0.73958 | 30156 ft | 449 kts | 11° |
| 2026-04-24 11:16 | 47.55318 | 0.76730 | 30152 ft | 450 kts | 17° |
| 2026-04-24 11:16 | 47.61266 | 0.79618 | 30153 ft | 450 kts | 18° |
| 2026-04-24 11:17 | 47.67211 | 0.82545 | 30155 ft | 450 kts | 18° |
| 2026-04-24 11:17 | 47.73155 | 0.85483 | 30158 ft | 450 kts | 18° |
| 2026-04-24 11:18 | 47.79086 | 0.88421 | 30168 ft | 449 kts | 18° |
| 2026-04-24 11:18 | 47.85021 | 0.91384 | 30173 ft | 449 kts | 18° |
| 2026-04-24 11:19 | 47.90942 | 0.94372 | 30155 ft | 449 kts | 18° |
| 2026-04-24 11:19 | 47.96868 | 0.97368 | 30168 ft | 450 kts | 18° |
| 2026-04-24 11:20 | 48.02789 | 1.00369 | 30167 ft | 450 kts | 18° |
| 2026-04-24 11:20 | 48.08712 | 1.03379 | 30178 ft | 450 kts | 18° |
| 2026-04-24 11:21 | 48.14631 | 1.06393 | 30177 ft | 450 kts | 18° |
| 2026-04-24 11:21 | 48.20552 | 1.09415 | 30173 ft | 450 kts | 18° |
| 2026-04-24 11:22 | 48.26449 | 1.12417 | 30196 ft | 452 kts | 18° |
| 2026-04-24 11:22 | 48.32397 | 1.15452 | 30194 ft | 452 kts | 18° |
| 2026-04-24 11:23 | 48.38337 | 1.18490 | 30189 ft | 452 kts | 18° |
| 2026-04-24 11:23 | 48.44279 | 1.21538 | 30184 ft | 452 kts | 18° |
| 2026-04-24 11:24 | 48.50254 | 1.24610 | 30196 ft | 454 kts | 18° |
| 2026-04-24 11:24 | 48.56234 | 1.27663 | 30215 ft | 454 kts | 18° |
| 2026-04-24 11:25 | 48.62223 | 1.30673 | 30214 ft | 455 kts | 19° |
| 2026-04-24 11:25 | 48.68305 | 1.33745 | 30218 ft | 464 kts | 19° |
| 2026-04-24 11:26 | 48.74429 | 1.36846 | 30230 ft | 464 kts | 19° |
| 2026-04-24 11:26 | 48.80550 | 1.39952 | 30227 ft | 464 kts | 19° |
| 2026-04-24 11:27 | 48.86674 | 1.43069 | 30240 ft | 464 kts | 19° |
| 2026-04-24 11:27 | 48.92792 | 1.46191 | 30243 ft | 464 kts | 19° |
| 2026-04-24 11:28 | 48.98424 | 1.50734 | 30183 ft | 461 kts | 45° |
| 2026-04-24 11:28 | 49.02820 | 1.57851 | 30223 ft | 462 kts | 47° |
| 2026-04-24 11:29 | 49.07150 | 1.65096 | 30233 ft | 462 kts | 48° |
| 2026-04-24 11:29 | 49.11448 | 1.72453 | 30247 ft | 465 kts | 48° |
| 2026-04-24 11:30 | 49.15018 | 1.78599 | 30241 ft | 466 kts | 49° |
| 2026-04-24 11:30 | 49.19359 | 1.86098 | 30237 ft | 473 kts | 49° |
| 2026-04-24 11:31 | 49.23712 | 1.93636 | 30242 ft | 472 kts | 50° |
| 2026-04-24 11:31 | 49.28063 | 2.01194 | 30249 ft | 473 kts | 50° |
| 2026-04-24 11:32 | 49.32412 | 2.08770 | 30260 ft | 474 kts | 50° |
| 2026-04-24 11:32 | 49.36758 | 2.16363 | 30275 ft | 474 kts | 50° |
| 2026-04-24 11:33 | 49.41101 | 2.23974 | 30250 ft | 474 kts | 50° |
| 2026-04-24 11:33 | 49.45469 | 2.31650 | 30264 ft | 479 kts | 50° |
| 2026-04-24 11:34 | 49.49845 | 2.39365 | 30266 ft | 479 kts | 50° |
| 2026-04-24 11:34 | 49.54232 | 2.47083 | 30263 ft | 481 kts | 47° |
| 2026-04-24 11:35 | 49.56814 | 2.50350 | 30260 ft | 481 kts | 32° |
| 2026-04-24 11:35 | 49.59655 | 2.53098 | 30245 ft | 483 kts | 33° |
| 2026-04-24 11:35 | 49.65313 | 2.58648 | 30253 ft | 483 kts | 33° |
| 2026-04-24 11:36 | 49.71003 | 2.64175 | 30262 ft | 482 kts | 33° |
| 2026-04-24 11:36 | 49.76685 | 2.69702 | 30262 ft | 483 kts | 32° |
| 2026-04-24 11:37 | 49.82385 | 2.75261 | 30248 ft | 488 kts | 32° |
| 2026-04-24 11:37 | 49.88131 | 2.80881 | 30256 ft | 488 kts | 32° |
| 2026-04-24 11:38 | 49.93826 | 2.86467 | 30269 ft | 488 kts | 32° |
| 2026-04-24 11:38 | 49.99572 | 2.92120 | 30263 ft | 489 kts | 32° |
| 2026-04-24 11:39 | 50.05314 | 2.97785 | 30270 ft | 489 kts | 32° |
| 2026-04-24 11:39 | 50.11052 | 3.03461 | 30284 ft | 489 kts | 32° |
| 2026-04-24 11:40 | 50.16789 | 3.09153 | 30289 ft | 489 kts | 32° |
| 2026-04-24 11:40 | 50.22546 | 3.14833 | 30274 ft | 489 kts | 29° |
| 2026-04-24 11:41 | 50.28722 | 3.19276 | 30278 ft | 489 kts | 24° |
| 2026-04-24 11:41 | 50.34934 | 3.23642 | 30271 ft | 490 kts | 23° |
| 2026-04-24 11:42 | 50.41163 | 3.28136 | 30294 ft | 494 kts | 26° |
| 2026-04-24 11:42 | 50.47334 | 3.32929 | 30284 ft | 494 kts | 25° |
| 2026-04-24 11:43 | 50.53567 | 3.37476 | 30300 ft | 494 kts | 22° |
| 2026-04-24 11:43 | 50.59862 | 3.41795 | 29919 ft | 493 kts | 23° |
| 2026-04-24 11:44 | 50.63002 | 3.43971 | 29629 ft | 495 kts | 22° |
| 2026-04-24 11:44 | 50.66161 | 3.46164 | 29332 ft | 495 kts | 23° |
| 2026-04-24 11:44 | 50.69314 | 3.48356 | 29040 ft | 496 kts | 23° |
| 2026-04-24 11:44 | 50.72475 | 3.50558 | 28753 ft | 496 kts | 23° |
| 2026-04-24 11:45 | 50.75594 | 3.52733 | 28472 ft | 497 kts | 23° |
| 2026-04-24 11:45 | 50.78757 | 3.54943 | 28185 ft | 497 kts | 23° |
| 2026-04-24 11:45 | 50.81940 | 3.57169 | 27255 ft | 495 kts | 23° |
| 2026-04-24 11:45 | 50.85070 | 3.59362 | 26171 ft | 500 kts | 23° |
| 2026-04-24 11:46 | 50.88243 | 3.61586 | 25493 ft | 495 kts | 22° |
| 2026-04-24 11:46 | 50.91471 | 3.63185 | 25424 ft | 484 kts | 8° |
| 2026-04-24 11:46 | 50.94810 | 3.63718 | 25094 ft | 480 kts | 2° |
| 2026-04-24 11:46 | 50.98157 | 3.64045 | 23976 ft | 484 kts | 1° |
| 2026-04-24 11:47 | 51.01549 | 3.64316 | 22803 ft | 489 kts | 1° |
| 2026-04-24 11:47 | 51.04922 | 3.64556 | 22039 ft | 482 kts | 1° |
| 2026-04-24 11:47 | 51.08248 | 3.64776 | 21342 ft | 475 kts | 1° |
| 2026-04-24 11:47 | 51.11524 | 3.64987 | 20680 ft | 468 kts | 1° |
| 2026-04-24 11:48 | 51.14743 | 3.65194 | 20008 ft | 455 kts | 1° |
| 2026-04-24 11:48 | 51.17858 | 3.65393 | 18993 ft | 444 kts | 1° |
| 2026-04-24 11:48 | 51.20919 | 3.65622 | 17815 ft | 436 kts | 5° |
| 2026-04-24 11:48 | 51.23694 | 3.66962 | 18114 ft | 404 kts | 25° |
| 2026-04-24 11:49 | 51.26181 | 3.69187 | 17752 ft | 415 kts | 32° |
| 2026-04-24 11:49 | 51.28609 | 3.71720 | 17454 ft | 418 kts | 34° |
| 2026-04-24 11:49 | 51.31009 | 3.74349 | 17165 ft | 418 kts | 34° |
| 2026-04-24 11:49 | 51.33384 | 3.77014 | 16874 ft | 416 kts | 35° |
| 2026-04-24 11:50 | 51.35731 | 3.79682 | 16585 ft | 413 kts | 35° |
| 2026-04-24 11:50 | 51.38057 | 3.82349 | 16297 ft | 410 kts | 36° |
| 2026-04-24 11:50 | 51.40193 | 3.85298 | 15955 ft | 402 kts | 49° |
| 2026-04-24 11:50 | 51.41658 | 3.89010 | 15717 ft | 391 kts | 66° |
| 2026-04-24 11:51 | 51.42507 | 3.93088 | 15460 ft | 380 kts | 73° |
| 2026-04-24 11:51 | 51.43204 | 3.97088 | 15204 ft | 367 kts | 75° |
| 2026-04-24 11:51 | 51.43841 | 4.00995 | 14941 ft | 358 kts | 75° |
| 2026-04-24 11:51 | 51.44447 | 4.04832 | 14689 ft | 351 kts | 75° |
| 2026-04-24 11:52 | 51.45025 | 4.08585 | 14436 ft | 342 kts | 75° |
| 2026-04-24 11:52 | 51.45578 | 4.12226 | 14195 ft | 331 kts | 76° |
| 2026-04-24 11:52 | 51.46110 | 4.15761 | 13948 ft | 320 kts | 76° |
| 2026-04-24 11:52 | 51.46620 | 4.19168 | 13714 ft | 309 kts | 76° |
| 2026-04-24 11:53 | 51.47109 | 4.22452 | 13488 ft | 297 kts | 75° |
| 2026-04-24 11:53 | 51.47584 | 4.25639 | 13288 ft | 290 kts | 75° |
| 2026-04-24 11:53 | 51.48050 | 4.28775 | 13087 ft | 290 kts | 75° |
| 2026-04-24 11:53 | 51.48517 | 4.31919 | 12885 ft | 290 kts | 75° |
| 2026-04-24 11:54 | 51.48982 | 4.35061 | 12680 ft | 289 kts | 75° |
| 2026-04-24 11:54 | 51.49444 | 4.38185 | 12471 ft | 288 kts | 76° |
| 2026-04-24 11:54 | 51.49903 | 4.41308 | 12276 ft | 288 kts | 76° |
| 2026-04-24 11:54 | 51.50362 | 4.44427 | 12073 ft | 287 kts | 75° |
| 2026-04-24 11:55 | 51.50818 | 4.47532 | 11872 ft | 286 kts | 75° |
| 2026-04-24 11:55 | 51.51273 | 4.50633 | 11669 ft | 285 kts | 75° |
| 2026-04-24 11:55 | 51.51791 | 4.53684 | 11448 ft | 282 kts | 64° |
| 2026-04-24 11:55 | 51.52835 | 4.56319 | 11221 ft | 279 kts | 53° |
| 2026-04-24 11:56 | 51.53955 | 4.58868 | 11049 ft | 279 kts | 53° |
| 2026-04-24 11:56 | 51.55071 | 4.61410 | 10849 ft | 278 kts | 53° |
| 2026-04-24 11:56 | 51.56189 | 4.63936 | 10650 ft | 277 kts | 53° |
| 2026-04-24 11:56 | 51.57307 | 4.66456 | 10458 ft | 277 kts | 53° |
| 2026-04-24 11:57 | 51.58420 | 4.68964 | 10235 ft | 275 kts | 53° |
| 2026-04-24 11:57 | 51.59527 | 4.71454 | 9860 ft | 273 kts | 53° |
| 2026-04-24 11:57 | 51.60628 | 4.73936 | 9539 ft | 271 kts | 53° |
| 2026-04-24 11:57 | 51.61715 | 4.76388 | 9328 ft | 270 kts | 53° |
| 2026-04-24 11:58 | 51.62793 | 4.78817 | 9148 ft | 269 kts | 53° |
| 2026-04-24 11:58 | 51.63878 | 4.81269 | 8951 ft | 268 kts | 53° |
| 2026-04-24 11:58 | 51.64958 | 4.83709 | 8770 ft | 267 kts | 53° |
| 2026-04-24 11:58 | 51.66031 | 4.86139 | 8577 ft | 266 kts | 53° |
| 2026-04-24 11:59 | 51.67116 | 4.88596 | 8389 ft | 265 kts | 53° |
| 2026-04-24 11:59 | 51.68059 | 4.91138 | 8172 ft | 266 kts | 69° |
| 2026-04-24 11:59 | 51.68257 | 4.94027 | 7953 ft | 264 kts | 96° |
| 2026-04-24 11:59 | 51.67712 | 4.96796 | 7776 ft | 256 kts | 112° |
| 2026-04-24 12:00 | 51.67006 | 4.99403 | 7611 ft | 248 kts | 111° |
| 2026-04-24 12:00 | 51.66312 | 5.01935 | 7515 ft | 247 kts | 111° |
| 2026-04-24 12:00 | 51.65609 | 5.04464 | 7337 ft | 247 kts | 111° |
| 2026-04-24 12:00 | 51.64901 | 5.06990 | 7128 ft | 247 kts | 112° |
| 2026-04-24 12:01 | 51.64190 | 5.09504 | 6954 ft | 246 kts | 112° |
| 2026-04-24 12:01 | 51.63239 | 5.11786 | 6760 ft | 247 kts | 131° |
| 2026-04-24 12:01 | 51.62076 | 5.13769 | 6564 ft | 241 kts | 131° |
| 2026-04-24 12:01 | 51.60939 | 5.15702 | 6406 ft | 234 kts | 131° |
| 2026-04-24 12:02 | 51.59849 | 5.17548 | 6252 ft | 227 kts | 131° |
| 2026-04-24 12:02 | 51.58761 | 5.19386 | 6111 ft | 221 kts | 131° |
| 2026-04-24 12:02 | 51.57706 | 5.21165 | 6012 ft | 224 kts | 131° |
| 2026-04-24 12:02 | 51.56632 | 5.22975 | 5860 ft | 224 kts | 131° |
| 2026-04-24 12:03 | 51.55541 | 5.24810 | 5704 ft | 224 kts | 131° |
| 2026-04-24 12:03 | 51.54468 | 5.26614 | 5539 ft | 221 kts | 131° |
| 2026-04-24 12:03 | 51.53444 | 5.28334 | 5388 ft | 211 kts | 130° |
| 2026-04-24 12:03 | 51.52457 | 5.29987 | 5257 ft | 200 kts | 130° |
| 2026-04-24 12:04 | 51.51493 | 5.31605 | 5151 ft | 201 kts | 129° |
| 2026-04-24 12:04 | 51.50513 | 5.33224 | 5117 ft | 204 kts | 134° |
| 2026-04-24 12:04 | 51.49244 | 5.34240 | 4993 ft | 209 kts | 168° |
| 2026-04-24 12:04 | 51.47812 | 5.34037 | 4867 ft | 209 kts | 202° |
| 2026-04-24 12:05 | 51.46653 | 5.32702 | 4691 ft | 205 kts | 234° |
| 2026-04-24 12:05 | 51.46066 | 5.30689 | 4516 ft | 198 kts | 260° |
| 2026-04-24 12:05 | 51.45776 | 5.28538 | 4351 ft | 197 kts | 263° |
| 2026-04-24 12:05 | 51.45519 | 5.26384 | 4195 ft | 197 kts | 263° |
| 2026-04-24 12:06 | 51.45274 | 5.24226 | 4038 ft | 197 kts | 263° |
| 2026-04-24 12:06 | 51.44964 | 5.22083 | 3885 ft | 200 kts | 248° |
| 2026-04-24 12:06 | 51.44076 | 5.20379 | 3706 ft | 203 kts | 220° |
| 2026-04-24 12:06 | 51.42983 | 5.19064 | 3562 ft | 189 kts | 218° |
| 2026-04-24 12:07 | 51.41931 | 5.17852 | 3429 ft | 183 kts | 217° |
| 2026-04-24 12:07 | 51.40902 | 5.16676 | 3351 ft | 181 kts | 217° |
| 2026-04-24 12:07 | 51.39873 | 5.15498 | 3310 ft | 182 kts | 213° |
| 2026-04-24 12:07 | 51.38665 | 5.15027 | 3134 ft | 180 kts | 174° |
| 2026-04-24 12:08 | 51.37520 | 5.15695 | 2970 ft | 175 kts | 139° |
| 2026-04-24 12:08 | 51.36689 | 5.17062 | 2841 ft | 171 kts | 125° |
| 2026-04-24 12:08 | 51.35927 | 5.18525 | 2766 ft | 170 kts | 123° |
| 2026-04-24 12:08 | 51.35220 | 5.20036 | 2616 ft | 169 kts | 120° |
| 2026-04-24 12:09 | 51.34550 | 5.21569 | 2454 ft | 167 kts | 120° |
| 2026-04-24 12:09 | 51.34162 | 5.23251 | 2289 ft | 159 kts | 84° |
| 2026-04-24 12:09 | 51.34522 | 5.24835 | 2203 ft | 152 kts | 54° |
| 2026-04-24 12:09 | 51.35184 | 5.26145 | 2145 ft | 152 kts | 44° |
| 2026-04-24 12:10 | 51.35968 | 5.27262 | 1991 ft | 145 kts | 36° |
| 2026-04-24 12:10 | 51.36740 | 5.28198 | 1832 ft | 136 kts | 34° |
| 2026-04-24 12:10 | 51.37505 | 5.29059 | 1680 ft | 134 kts | 32° |
| 2026-04-24 12:11 | 51.39038 | 5.30771 | 1323 ft | 133 kts | 33° |
| 2026-04-24 12:11 | 51.39793 | 5.31621 | 1202 ft | 130 kts | 33° |
| 2026-04-24 12:11 | 51.40527 | 5.32460 | 1025 ft | 138 kts | 33° |
| 2026-04-24 12:11 | 51.41321 | 5.33392 | 905 ft | 141 kts | 32° |
| 2026-04-24 12:12 | 51.42152 | 5.34242 | 678 ft | 141 kts | 30° |
| 2026-04-24 12:12 | 51.42953 | 5.35136 | 393 ft | 142 kts | 33° |
| 2026-04-24 12:12 | 51.43735 | 5.36031 | 203 ft | 138 kts | 31° |
| 2026-04-24 12:12 | 51.44506 | 5.36874 | 80 ft | 124 kts | 36° |
| 2026-04-24 12:13 | 51.45033 | 5.37472 | 72 ft | 61 kts | 37° |
| 2026-04-24 12:13 | 51.45328 | 5.37801 | 83 ft | 21 kts | 34° |
| 2026-04-24 12:13 | 51.45364 | 5.37893 | 85 ft | 8 kts | 95° |
| 2026-04-24 12:13 | 51.45327 | 5.38000 | 82 ft | 13 kts | 124° |
| 2026-04-24 12:14 | 51.45280 | 5.38106 | 82 ft | 7 kts | 125° |
| 2026-04-24 12:14 | 51.45259 | 5.38154 | 82 ft | 1 kts | 125° |
| 2026-04-24 12:14 | 51.45257 | 5.38158 | 84 ft | 1 kts | 125° |
| 2026-04-24 12:14 | 51.45250 | 5.38175 | 84 ft | 4 kts | 123° |
| 2026-04-24 12:15 | 51.45241 | 5.38231 | 79 ft | 4 kts | 75° |
| 2026-04-24 12:15 | 51.45254 | 5.38269 | 83 ft | 5 kts | 51° |
| 2026-04-24 12:15 | 51.45293 | 5.38319 | 81 ft | 11 kts | 31° |
| 2026-04-24 12:15 | 51.45377 | 5.38399 | 77 ft | 13 kts | 8° |
| 2026-04-24 12:16 | 51.45447 | 5.38313 | 70 ft | 13 kts | 304° |
| 2026-04-24 12:16 | 51.45485 | 5.38226 | 72 ft | 5 kts | 305° |
| 2026-04-24 12:16 | 51.45497 | 5.38199 | 75 ft | 3 kts | 305° |
| 2026-04-24 12:16 | 51.45513 | 5.38163 | 75 ft | 5 kts | 305° |
| 2026-04-24 12:17 | 51.45547 | 5.38084 | 81 ft | 13 kts | 305° |
| 2026-04-24 12:17 | 51.45618 | 5.37929 | 81 ft | 19 kts | 315° |
| 2026-04-24 12:17 | 51.45675 | 5.37918 | 80 ft | 13 kts | 25° |
| 2026-04-24 12:17 | 51.45792 | 5.38046 | 80 ft | 17 kts | 35° |
| 2026-04-24 12:18 | 51.45863 | 5.38125 | 75 ft | 20 kts | 34° |
| 2026-04-24 12:18 | 51.45967 | 5.38240 | 82 ft | 13 kts | 36° |
| 2026-04-24 12:18 | 51.45983 | 5.38345 | 83 ft | 12 kts | 117° |
| 2026-04-24 12:18 | 51.45928 | 5.38471 | 84 ft | 16 kts | 126° |
| 2026-04-24 12:19 | 51.45859 | 5.38624 | 83 ft | 19 kts | 126° |
| 2026-04-24 12:19 | 51.45799 | 5.38762 | 71 ft | 12 kts | 119° |
| 2026-04-24 12:19 | 51.45785 | 5.38857 | 77 ft | 8 kts | 115° |
| 2026-04-24 12:19 | 51.45760 | 5.38920 | 69 ft | 5 kts | 124° |
| 2026-04-24 12:20 | 51.45755 | 5.38932 | 73 ft | 3 kts | 124° |
| 2026-04-24 12:20 | 51.45754 | 5.38935 | 73 ft | 0 kts | 124° |